sensor_id;sensor_type;location;lat;lon;timestamp;P1;durP1;ratioP1;P2;durP2;ratioP2
60078;SDS011;45951;45.824;8.824;2023-10-08T00:00:23;10.63;;;6.10;;
60078;SDS011;45951;45.824;8.824;2023-10-08T00:02:25;9.90;;;6.18;;
60078;SDS011;45951;45.824;8.824;2023-10-08T00:04:06;10.95;;;6.80;;
60078;SDS011;45951;45.824;8.824;2023-10-08T00:05:47;11.38;;;6.03;;
60078;SDS011;45951;45.824;8.824;2023-10-08T00:07:29;14.30;;;6.72;;
60078;SDS011;45951;45.824;8.824;2023-10-08T00:09:09;10.02;;;6.13;;
60078;SDS011;45951;45.824;8.824;2023-10-08T00:10:50;10.77;;;6.47;;
60078;SDS011;45951;45.824;8.824;2023-10-08T00:12:31;12.18;;;6.30;;
60078;SDS011;45951;45.824;8.824;2023-10-08T00:14:11;11.70;;;6.65;;
60078;SDS011;45951;45.824;8.824;2023-10-08T00:15:57;11.40;;;5.90;;
60078;SDS011;45951;45.824;8.824;2023-10-08T00:17:38;12.05;;;6.20;;
60078;SDS011;45951;45.824;8.824;2023-10-08T00:19:18;15.38;;;6.72;;
60078;SDS011;45951;45.824;8.824;2023-10-08T00:20:58;12.32;;;6.53;;
60078;SDS011;45951;45.824;8.824;2023-10-08T00:22:55;11.85;;;6.20;;
60078;SDS011;45951;45.824;8.824;2023-10-08T00:24:36;10.38;;;5.97;;
60078;SDS011;45951;45.824;8.824;2023-10-08T00:26:21;12.13;;;6.97;;
60078;SDS011;45951;45.824;8.824;2023-10-08T00:28:07;9.40;;;5.90;;
60078;SDS011;45951;45.824;8.824;2023-10-08T00:29:50;10.88;;;6.40;;
60078;SDS011;45951;45.824;8.824;2023-10-08T00:31:31;11.30;;;6.07;;
60078;SDS011;45951;45.824;8.824;2023-10-08T00:33:17;13.18;;;6.45;;
60078;SDS011;45951;45.824;8.824;2023-10-08T00:34:58;11.45;;;6.57;;
60078;SDS011;45951;45.824;8.824;2023-10-08T00:36:43;12.77;;;6.10;;
60078;SDS011;45951;45.824;8.824;2023-10-08T00:38:25;10.88;;;5.82;;
60078;SDS011;45951;45.824;8.824;2023-10-08T00:40:12;11.77;;;6.78;;
60078;SDS011;45951;45.824;8.824;2023-10-08T00:41:53;11.80;;;6.35;;
60078;SDS011;45951;45.824;8.824;2023-10-08T00:43:39;11.23;;;6.05;;
60078;SDS011;45951;45.824;8.824;2023-10-08T00:45:20;12.55;;;6.53;;
60078;SDS011;45951;45.824;8.824;2023-10-08T00:47:00;12.00;;;6.40;;
60078;SDS011;45951;45.824;8.824;2023-10-08T00:48:41;9.35;;;5.70;;
60078;SDS011;45951;45.824;8.824;2023-10-08T00:50:24;9.88;;;5.55;;
60078;SDS011;45951;45.824;8.824;2023-10-08T00:52:12;10.52;;;5.75;;
60078;SDS011;45951;45.824;8.824;2023-10-08T00:53:56;10.93;;;5.03;;
60078;SDS011;45951;45.824;8.824;2023-10-08T00:55:45;11.52;;;5.20;;
60078;SDS011;45951;45.824;8.824;2023-10-08T00:57:33;9.90;;;4.57;;
60078;SDS011;45951;45.824;8.824;2023-10-08T00:59:22;9.90;;;4.70;;
60078;SDS011;45951;45.824;8.824;2023-10-08T01:01:03;9.10;;;4.75;;
60078;SDS011;45951;45.824;8.824;2023-10-08T01:02:50;12.02;;;4.68;;
60078;SDS011;45951;45.824;8.824;2023-10-08T01:04:40;10.10;;;4.82;;
60078;SDS011;45951;45.824;8.824;2023-10-08T01:06:23;12.20;;;4.63;;
60078;SDS011;45951;45.824;8.824;2023-10-08T01:08:10;9.88;;;5.15;;
60078;SDS011;45951;45.824;8.824;2023-10-08T01:09:52;9.40;;;5.30;;
60078;SDS011;45951;45.824;8.824;2023-10-08T01:11:39;11.18;;;4.38;;
60078;SDS011;45951;45.824;8.824;2023-10-08T01:13:26;11.07;;;4.07;;
60078;SDS011;45951;45.824;8.824;2023-10-08T01:15:07;9.43;;;4.05;;
60078;SDS011;45951;45.824;8.824;2023-10-08T01:16:56;11.18;;;4.53;;
60078;SDS011;45951;45.824;8.824;2023-10-08T01:18:38;10.40;;;4.30;;
60078;SDS011;45951;45.824;8.824;2023-10-08T01:20:23;9.18;;;4.30;;
60078;SDS011;45951;45.824;8.824;2023-10-08T01:22:13;9.95;;;4.22;;
60078;SDS011;45951;45.824;8.824;2023-10-08T01:23:58;8.80;;;3.97;;
60078;SDS011;45951;45.824;8.824;2023-10-08T01:25:40;10.55;;;4.78;;
60078;SDS011;45951;45.824;8.824;2023-10-08T01:27:22;9.90;;;4.10;;
60078;SDS011;45951;45.824;8.824;2023-10-08T01:29:11;12.13;;;5.25;;
60078;SDS011;45951;45.824;8.824;2023-10-08T01:31:01;10.57;;;4.47;;
60078;SDS011;45951;45.824;8.824;2023-10-08T01:32:44;9.70;;;4.35;;
60078;SDS011;45951;45.824;8.824;2023-10-08T01:34:24;10.80;;;4.40;;
60078;SDS011;45951;45.824;8.824;2023-10-08T01:36:10;8.40;;;4.00;;
60078;SDS011;45951;45.824;8.824;2023-10-08T01:37:52;10.35;;;4.38;;
60078;SDS011;45951;45.824;8.824;2023-10-08T01:39:36;10.65;;;4.28;;
60078;SDS011;45951;45.824;8.824;2023-10-08T01:41:20;10.23;;;4.25;;
60078;SDS011;45951;45.824;8.824;2023-10-08T01:43:10;9.95;;;4.30;;
60078;SDS011;45951;45.824;8.824;2023-10-08T01:44:53;10.40;;;4.82;;
60078;SDS011;45951;45.824;8.824;2023-10-08T01:46:36;9.23;;;4.15;;
60078;SDS011;45951;45.824;8.824;2023-10-08T01:48:18;8.77;;;4.13;;
60078;SDS011;45951;45.824;8.824;2023-10-08T01:50:08;10.35;;;4.85;;
60078;SDS011;45951;45.824;8.824;2023-10-08T01:52:01;13.70;;;4.30;;
60078;SDS011;45951;45.824;8.824;2023-10-08T01:53:47;10.70;;;4.22;;
60078;SDS011;45951;45.824;8.824;2023-10-08T01:55:27;9.98;;;4.43;;
60078;SDS011;45951;45.824;8.824;2023-10-08T01:57:13;10.02;;;3.63;;
60078;SDS011;45951;45.824;8.824;2023-10-08T01:58:54;12.15;;;4.72;;
60078;SDS011;45951;45.824;8.824;2023-10-08T02:00:35;9.60;;;4.32;;
60078;SDS011;45951;45.824;8.824;2023-10-08T02:02:16;10.10;;;4.15;;
60078;SDS011;45951;45.824;8.824;2023-10-08T02:03:56;9.50;;;4.07;;
60078;SDS011;45951;45.824;8.824;2023-10-08T02:05:36;8.93;;;5.05;;
60078;SDS011;45951;45.824;8.824;2023-10-08T02:07:22;9.38;;;4.03;;
60078;SDS011;45951;45.824;8.824;2023-10-08T02:09:02;8.88;;;4.03;;
60078;SDS011;45951;45.824;8.824;2023-10-08T02:10:49;9.95;;;3.75;;
60078;SDS011;45951;45.824;8.824;2023-10-08T02:12:30;9.60;;;3.65;;
60078;SDS011;45951;45.824;8.824;2023-10-08T02:14:10;9.80;;;3.08;;
60078;SDS011;45951;45.824;8.824;2023-10-08T02:15:52;7.90;;;2.75;;
60078;SDS011;45951;45.824;8.824;2023-10-08T02:17:32;8.75;;;2.97;;
60078;SDS011;45951;45.824;8.824;2023-10-08T02:19:13;9.63;;;3.08;;
60078;SDS011;45951;45.824;8.824;2023-10-08T02:20:58;8.85;;;3.22;;
60078;SDS011;45951;45.824;8.824;2023-10-08T02:22:39;9.45;;;3.25;;
60078;SDS011;45951;45.824;8.824;2023-10-08T02:24:19;7.25;;;2.63;;
60078;SDS011;45951;45.824;8.824;2023-10-08T02:26:06;8.50;;;2.65;;
60078;SDS011;45951;45.824;8.824;2023-10-08T02:27:46;9.15;;;3.40;;
60078;SDS011;45951;45.824;8.824;2023-10-08T02:29:30;9.75;;;2.65;;
60078;SDS011;45951;45.824;8.824;2023-10-08T02:31:10;9.93;;;3.13;;
60078;SDS011;45951;45.824;8.824;2023-10-08T02:32:51;7.45;;;2.80;;
60078;SDS011;45951;45.824;8.824;2023-10-08T02:34:32;9.40;;;3.15;;
60078;SDS011;45951;45.824;8.824;2023-10-08T02:36:13;9.43;;;2.80;;
60078;SDS011;45951;45.824;8.824;2023-10-08T02:37:53;10.85;;;3.10;;
60078;SDS011;45951;45.824;8.824;2023-10-08T02:39:37;7.05;;;2.58;;
60078;SDS011;45951;45.824;8.824;2023-10-08T02:41:20;10.35;;;3.58;;
60078;SDS011;45951;45.824;8.824;2023-10-08T02:43:04;13.52;;;4.22;;
60078;SDS011;45951;45.824;8.824;2023-10-08T02:44:48;8.63;;;3.10;;
60078;SDS011;45951;45.824;8.824;2023-10-08T02:46:31;11.07;;;3.42;;
60078;SDS011;45951;45.824;8.824;2023-10-08T02:48:13;9.02;;;2.60;;
60078;SDS011;45951;45.824;8.824;2023-10-08T02:49:53;7.97;;;2.58;;
60078;SDS011;45951;45.824;8.824;2023-10-08T02:51:33;8.65;;;2.92;;
60078;SDS011;45951;45.824;8.824;2023-10-08T02:53:14;10.07;;;2.92;;
60078;SDS011;45951;45.824;8.824;2023-10-08T02:55:06;7.80;;;2.80;;
60078;SDS011;45951;45.824;8.824;2023-10-08T02:56:58;8.10;;;2.78;;
60078;SDS011;45951;45.824;8.824;2023-10-08T02:58:42;10.63;;;3.20;;
60078;SDS011;45951;45.824;8.824;2023-10-08T03:00:27;8.98;;;2.75;;
60078;SDS011;45951;45.824;8.824;2023-10-08T03:02:10;8.10;;;2.80;;
60078;SDS011;45951;45.824;8.824;2023-10-08T03:05:45;10.10;;;3.20;;
60078;SDS011;45951;45.824;8.824;2023-10-08T03:07:26;8.77;;;3.00;;
60078;SDS011;45951;45.824;8.824;2023-10-08T03:09:12;9.00;;;2.70;;
60078;SDS011;45951;45.824;8.824;2023-10-08T03:10:53;9.13;;;2.88;;
60078;SDS011;45951;45.824;8.824;2023-10-08T03:12:35;11.48;;;2.67;;
60078;SDS011;45951;45.824;8.824;2023-10-08T03:14:16;10.73;;;3.03;;
60078;SDS011;45951;45.824;8.824;2023-10-08T03:16:03;11.40;;;3.40;;
60078;SDS011;45951;45.824;8.824;2023-10-08T03:17:43;11.00;;;3.10;;
60078;SDS011;45951;45.824;8.824;2023-10-08T03:19:31;8.98;;;2.97;;
60078;SDS011;45951;45.824;8.824;2023-10-08T03:21:11;8.45;;;2.60;;
60078;SDS011;45951;45.824;8.824;2023-10-08T03:23:01;10.68;;;2.78;;
60078;SDS011;45951;45.824;8.824;2023-10-08T03:24:45;7.53;;;2.28;;
60078;SDS011;45951;45.824;8.824;2023-10-08T03:26:28;10.73;;;3.20;;
60078;SDS011;45951;45.824;8.824;2023-10-08T03:28:18;10.70;;;2.78;;
60078;SDS011;45951;45.824;8.824;2023-10-08T03:29:58;9.20;;;3.03;;
60078;SDS011;45951;45.824;8.824;2023-10-08T03:31:39;9.88;;;2.78;;
60078;SDS011;45951;45.824;8.824;2023-10-08T03:33:29;11.32;;;3.05;;
60078;SDS011;45951;45.824;8.824;2023-10-08T03:35:14;10.00;;;2.95;;
60078;SDS011;45951;45.824;8.824;2023-10-08T03:36:57;8.18;;;3.05;;
60078;SDS011;45951;45.824;8.824;2023-10-08T03:38:45;8.82;;;3.28;;
60078;SDS011;45951;45.824;8.824;2023-10-08T03:40:30;9.00;;;2.90;;
60078;SDS011;45951;45.824;8.824;2023-10-08T03:42:23;10.90;;;2.83;;
60078;SDS011;45951;45.824;8.824;2023-10-08T03:44:04;9.90;;;2.72;;
60078;SDS011;45951;45.824;8.824;2023-10-08T03:45:52;7.47;;;2.63;;
60078;SDS011;45951;45.824;8.824;2023-10-08T03:47:39;10.85;;;3.47;;
60078;SDS011;45951;45.824;8.824;2023-10-08T03:49:26;8.10;;;2.33;;
60078;SDS011;45951;45.824;8.824;2023-10-08T03:51:07;11.35;;;2.85;;
60078;SDS011;45951;45.824;8.824;2023-10-08T03:52:52;7.18;;;2.65;;
60078;SDS011;45951;45.824;8.824;2023-10-08T03:54:32;11.00;;;2.63;;
60078;SDS011;45951;45.824;8.824;2023-10-08T03:56:15;11.63;;;2.85;;
60078;SDS011;45951;45.824;8.824;2023-10-08T03:57:59;12.10;;;2.90;;
60078;SDS011;45951;45.824;8.824;2023-10-08T03:59:44;10.90;;;3.25;;
60078;SDS011;45951;45.824;8.824;2023-10-08T04:01:28;10.88;;;3.08;;
60078;SDS011;45951;45.824;8.824;2023-10-08T04:03:12;11.48;;;3.03;;
60078;SDS011;45951;45.824;8.824;2023-10-08T04:04:54;8.02;;;2.90;;
60078;SDS011;45951;45.824;8.824;2023-10-08T04:06:37;11.93;;;2.92;;
60078;SDS011;45951;45.824;8.824;2023-10-08T04:08:18;10.85;;;2.80;;
60078;SDS011;45951;45.824;8.824;2023-10-08T04:10:05;11.45;;;3.28;;
60078;SDS011;45951;45.824;8.824;2023-10-08T04:11:48;11.30;;;3.00;;
60078;SDS011;45951;45.824;8.824;2023-10-08T04:13:29;9.98;;;2.72;;
60078;SDS011;45951;45.824;8.824;2023-10-08T04:15:10;6.35;;;2.28;;
60078;SDS011;45951;45.824;8.824;2023-10-08T04:16:56;12.43;;;3.35;;
60078;SDS011;45951;45.824;8.824;2023-10-08T04:18:38;12.40;;;3.20;;
60078;SDS011;45951;45.824;8.824;2023-10-08T04:20:20;8.65;;;3.10;;
60078;SDS011;45951;45.824;8.824;2023-10-08T04:22:18;8.95;;;2.72;;
60078;SDS011;45951;45.824;8.824;2023-10-08T04:23:59;10.25;;;3.60;;
60078;SDS011;45951;45.824;8.824;2023-10-08T04:25:43;11.77;;;3.00;;
60078;SDS011;45951;45.824;8.824;2023-10-08T04:27:23;9.70;;;2.97;;
60078;SDS011;45951;45.824;8.824;2023-10-08T04:29:09;8.43;;;2.72;;
60078;SDS011;45951;45.824;8.824;2023-10-08T04:30:50;11.77;;;2.67;;
60078;SDS011;45951;45.824;8.824;2023-10-08T04:32:33;11.82;;;2.90;;
60078;SDS011;45951;45.824;8.824;2023-10-08T04:34:13;10.60;;;2.80;;
60078;SDS011;45951;45.824;8.824;2023-10-08T04:35:56;9.50;;;2.72;;
60078;SDS011;45951;45.824;8.824;2023-10-08T04:37:41;11.48;;;2.80;;
60078;SDS011;45951;45.824;8.824;2023-10-08T04:39:22;10.43;;;3.00;;
60078;SDS011;45951;45.824;8.824;2023-10-08T04:41:06;10.00;;;2.72;;
60078;SDS011;45951;45.824;8.824;2023-10-08T04:42:49;12.70;;;3.38;;
60078;SDS011;45951;45.824;8.824;2023-10-08T04:44:29;12.63;;;2.83;;
60078;SDS011;45951;45.824;8.824;2023-10-08T04:46:12;9.25;;;2.92;;
60078;SDS011;45951;45.824;8.824;2023-10-08T04:48:10;8.07;;;2.85;;
60078;SDS011;45951;45.824;8.824;2023-10-08T04:49:54;9.27;;;2.85;;
60078;SDS011;45951;45.824;8.824;2023-10-08T04:51:36;7.85;;;2.97;;
60078;SDS011;45951;45.824;8.824;2023-10-08T04:53:24;9.05;;;2.88;;
60078;SDS011;45951;45.824;8.824;2023-10-08T04:55:12;9.30;;;2.80;;
60078;SDS011;45951;45.824;8.824;2023-10-08T04:57:00;10.85;;;2.90;;
60078;SDS011;45951;45.824;8.824;2023-10-08T04:58:41;9.60;;;3.20;;
60078;SDS011;45951;45.824;8.824;2023-10-08T05:00:26;10.57;;;3.17;;
60078;SDS011;45951;45.824;8.824;2023-10-08T05:02:31;10.90;;;3.28;;
60078;SDS011;45951;45.824;8.824;2023-10-08T05:04:16;10.98;;;3.22;;
60078;SDS011;45951;45.824;8.824;2023-10-08T05:06:30;8.18;;;2.83;;
60078;SDS011;45951;45.824;8.824;2023-10-08T05:08:15;12.57;;;3.35;;
60078;SDS011;45951;45.824;8.824;2023-10-08T05:10:08;10.27;;;3.03;;
60078;SDS011;45951;45.824;8.824;2023-10-08T05:11:52;9.43;;;2.85;;
60078;SDS011;45951;45.824;8.824;2023-10-08T05:13:32;12.55;;;3.20;;
60078;SDS011;45951;45.824;8.824;2023-10-08T05:15:15;11.27;;;2.50;;
60078;SDS011;45951;45.824;8.824;2023-10-08T05:16:55;9.52;;;3.03;;
60078;SDS011;45951;45.824;8.824;2023-10-08T05:18:56;9.00;;;2.90;;
60078;SDS011;45951;45.824;8.824;2023-10-08T05:21:14;9.38;;;2.40;;
60078;SDS011;45951;45.824;8.824;2023-10-08T05:23:06;11.98;;;2.60;;
60078;SDS011;45951;45.824;8.824;2023-10-08T05:25:05;10.77;;;2.60;;
60078;SDS011;45951;45.824;8.824;2023-10-08T05:26:47;9.98;;;2.78;;
60078;SDS011;45951;45.824;8.824;2023-10-08T05:28:39;10.38;;;2.72;;
60078;SDS011;45951;45.824;8.824;2023-10-08T05:30:38;10.00;;;2.90;;
60078;SDS011;45951;45.824;8.824;2023-10-08T05:32:21;11.68;;;3.17;;
60078;SDS011;45951;45.824;8.824;2023-10-08T05:34:18;9.73;;;2.47;;
60078;SDS011;45951;45.824;8.824;2023-10-08T05:36:12;8.95;;;2.42;;
60078;SDS011;45951;45.824;8.824;2023-10-08T05:37:59;11.30;;;3.22;;
60078;SDS011;45951;45.824;8.824;2023-10-08T05:39:52;10.32;;;3.00;;
60078;SDS011;45951;45.824;8.824;2023-10-08T05:41:38;10.45;;;2.97;;
60078;SDS011;45951;45.824;8.824;2023-10-08T05:43:32;8.02;;;2.38;;
60078;SDS011;45951;45.824;8.824;2023-10-08T05:45:33;11.45;;;2.85;;
60078;SDS011;45951;45.824;8.824;2023-10-08T05:47:14;10.50;;;2.85;;
60078;SDS011;45951;45.824;8.824;2023-10-08T05:49:13;10.90;;;2.85;;
60078;SDS011;45951;45.824;8.824;2023-10-08T05:50:53;10.82;;;3.03;;
60078;SDS011;45951;45.824;8.824;2023-10-08T05:52:52;9.25;;;3.03;;
60078;SDS011;45951;45.824;8.824;2023-10-08T05:54:40;12.43;;;3.00;;
60078;SDS011;45951;45.824;8.824;2023-10-08T05:56:40;8.20;;;2.90;;
60078;SDS011;45951;45.824;8.824;2023-10-08T05:58:41;13.38;;;2.90;;
60078;SDS011;45951;45.824;8.824;2023-10-08T06:00:43;10.43;;;2.70;;
60078;SDS011;45951;45.824;8.824;2023-10-08T06:02:31;12.13;;;3.33;;
60078;SDS011;45951;45.824;8.824;2023-10-08T06:04:18;11.68;;;3.17;;
60078;SDS011;45951;45.824;8.824;2023-10-08T06:06:21;7.45;;;2.70;;
60078;SDS011;45951;45.824;8.824;2023-10-08T06:08:01;9.18;;;2.80;;
60078;SDS011;45951;45.824;8.824;2023-10-08T06:09:51;10.32;;;2.80;;
60078;SDS011;45951;45.824;8.824;2023-10-08T06:11:42;13.25;;;3.40;;
60078;SDS011;45951;45.824;8.824;2023-10-08T06:13:36;9.05;;;2.63;;
60078;SDS011;45951;45.824;8.824;2023-10-08T06:15:37;9.68;;;2.78;;
60078;SDS011;45951;45.824;8.824;2023-10-08T06:17:30;12.35;;;3.95;;
60078;SDS011;45951;45.824;8.824;2023-10-08T06:19:28;9.65;;;2.83;;
60078;SDS011;45951;45.824;8.824;2023-10-08T06:21:09;10.35;;;3.22;;
60078;SDS011;45951;45.824;8.824;2023-10-08T06:22:52;9.27;;;2.50;;
60078;SDS011;45951;45.824;8.824;2023-10-08T06:24:35;6.93;;;2.50;;
60078;SDS011;45951;45.824;8.824;2023-10-08T06:26:18;9.82;;;2.63;;
60078;SDS011;45951;45.824;8.824;2023-10-08T06:28:01;9.80;;;2.72;;
60078;SDS011;45951;45.824;8.824;2023-10-08T06:29:42;12.23;;;3.05;;
60078;SDS011;45951;45.824;8.824;2023-10-08T06:31:24;9.80;;;2.45;;
60078;SDS011;45951;45.824;8.824;2023-10-08T06:33:07;13.20;;;3.00;;
60078;SDS011;45951;45.824;8.824;2023-10-08T06:34:49;11.45;;;2.97;;
60078;SDS011;45951;45.824;8.824;2023-10-08T06:36:30;12.35;;;3.17;;
60078;SDS011;45951;45.824;8.824;2023-10-08T06:38:12;12.38;;;3.40;;
60078;SDS011;45951;45.824;8.824;2023-10-08T06:39:55;11.95;;;3.55;;
60078;SDS011;45951;45.824;8.824;2023-10-08T06:41:37;11.63;;;2.80;;
60078;SDS011;45951;45.824;8.824;2023-10-08T06:43:17;9.00;;;2.50;;
60078;SDS011;45951;45.824;8.824;2023-10-08T06:45:05;10.93;;;2.75;;
60078;SDS011;45951;45.824;8.824;2023-10-08T06:46:49;13.70;;;3.55;;
60078;SDS011;45951;45.824;8.824;2023-10-08T06:48:32;12.30;;;2.83;;
60078;SDS011;45951;45.824;8.824;2023-10-08T06:50:15;15.77;;;3.83;;
60078;SDS011;45951;45.824;8.824;2023-10-08T06:51:56;11.60;;;3.00;;
60078;SDS011;45951;45.824;8.824;2023-10-08T06:53:36;9.80;;;2.47;;
60078;SDS011;45951;45.824;8.824;2023-10-08T06:55:18;8.75;;;2.65;;
60078;SDS011;45951;45.824;8.824;2023-10-08T06:56:59;12.00;;;3.08;;
60078;SDS011;45951;45.824;8.824;2023-10-08T06:58:40;9.02;;;2.60;;
60078;SDS011;45951;45.824;8.824;2023-10-08T07:00:25;9.75;;;3.53;;
60078;SDS011;45951;45.824;8.824;2023-10-08T07:04:06;14.45;;;3.22;;
60078;SDS011;45951;45.824;8.824;2023-10-08T07:05:52;12.88;;;3.22;;
60078;SDS011;45951;45.824;8.824;2023-10-08T07:07:37;11.20;;;3.33;;
60078;SDS011;45951;45.824;8.824;2023-10-08T07:09:19;10.38;;;3.90;;
60078;SDS011;45951;45.824;8.824;2023-10-08T07:11:03;10.63;;;2.72;;
60078;SDS011;45951;45.824;8.824;2023-10-08T07:12:46;11.85;;;3.10;;
60078;SDS011;45951;45.824;8.824;2023-10-08T07:14:27;12.82;;;3.05;;
60078;SDS011;45951;45.824;8.824;2023-10-08T07:16:08;13.35;;;3.05;;
60078;SDS011;45951;45.824;8.824;2023-10-08T07:17:51;11.15;;;3.22;;
60078;SDS011;45951;45.824;8.824;2023-10-08T07:19:31;13.52;;;3.30;;
60078;SDS011;45951;45.824;8.824;2023-10-08T07:21:18;10.95;;;2.83;;
60078;SDS011;45951;45.824;8.824;2023-10-08T07:23:04;11.32;;;3.00;;
60078;SDS011;45951;45.824;8.824;2023-10-08T07:24:49;11.23;;;3.42;;
60078;SDS011;45951;45.824;8.824;2023-10-08T07:26:30;11.27;;;2.53;;
60078;SDS011;45951;45.824;8.824;2023-10-08T07:28:17;12.80;;;2.80;;
60078;SDS011;45951;45.824;8.824;2023-10-08T07:29:59;14.05;;;3.17;;
60078;SDS011;45951;45.824;8.824;2023-10-08T07:31:43;8.70;;;2.83;;
60078;SDS011;45951;45.824;8.824;2023-10-08T07:33:28;9.07;;;2.70;;
60078;SDS011;45951;45.824;8.824;2023-10-08T07:35:16;8.27;;;2.90;;
60078;SDS011;45951;45.824;8.824;2023-10-08T07:37:06;9.45;;;2.85;;
60078;SDS011;45951;45.824;8.824;2023-10-08T07:38:46;8.57;;;3.00;;
60078;SDS011;45951;45.824;8.824;2023-10-08T07:40:27;9.40;;;3.22;;
60078;SDS011;45951;45.824;8.824;2023-10-08T07:42:09;10.30;;;2.47;;
60078;SDS011;45951;45.824;8.824;2023-10-08T07:43:50;10.23;;;2.78;;
60078;SDS011;45951;45.824;8.824;2023-10-08T07:45:35;9.95;;;2.50;;
60078;SDS011;45951;45.824;8.824;2023-10-08T07:47:16;10.82;;;2.90;;
60078;SDS011;45951;45.824;8.824;2023-10-08T07:48:56;11.32;;;3.10;;
60078;SDS011;45951;45.824;8.824;2023-10-08T07:50:41;8.55;;;3.10;;
60078;SDS011;45951;45.824;8.824;2023-10-08T07:52:23;11.45;;;3.30;;
60078;SDS011;45951;45.824;8.824;2023-10-08T07:54:03;12.82;;;2.97;;
60078;SDS011;45951;45.824;8.824;2023-10-08T07:55:50;10.50;;;3.70;;
60078;SDS011;45951;45.824;8.824;2023-10-08T07:57:31;13.63;;;3.05;;
60078;SDS011;45951;45.824;8.824;2023-10-08T07:59:11;11.85;;;2.80;;
60078;SDS011;45951;45.824;8.824;2023-10-08T08:00:54;9.60;;;2.70;;
60078;SDS011;45951;45.824;8.824;2023-10-08T08:02:35;8.63;;;2.78;;
60078;SDS011;45951;45.824;8.824;2023-10-08T08:04:15;12.90;;;2.90;;
60078;SDS011;45951;45.824;8.824;2023-10-08T08:06:06;11.75;;;2.78;;
60078;SDS011;45951;45.824;8.824;2023-10-08T08:07:46;10.43;;;3.00;;
60078;SDS011;45951;45.824;8.824;2023-10-08T08:09:29;9.75;;;3.17;;
60078;SDS011;45951;45.824;8.824;2023-10-08T08:11:10;11.13;;;3.28;;
60078;SDS011;45951;45.824;8.824;2023-10-08T08:12:57;10.63;;;2.72;;
60078;SDS011;45951;45.824;8.824;2023-10-08T08:14:37;10.75;;;2.63;;
60078;SDS011;45951;45.824;8.824;2023-10-08T08:16:21;11.73;;;2.60;;
60078;SDS011;45951;45.824;8.824;2023-10-08T08:18:01;9.35;;;2.75;;
60078;SDS011;45951;45.824;8.824;2023-10-08T08:19:46;9.95;;;2.78;;
60078;SDS011;45951;45.824;8.824;2023-10-08T08:21:27;10.45;;;3.70;;
60078;SDS011;45951;45.824;8.824;2023-10-08T08:23:10;12.88;;;4.07;;
60078;SDS011;45951;45.824;8.824;2023-10-08T08:24:52;9.10;;;3.00;;
60078;SDS011;45951;45.824;8.824;2023-10-08T08:26:35;14.00;;;3.53;;
60078;SDS011;45951;45.824;8.824;2023-10-08T08:28:41;12.40;;;3.92;;
60078;SDS011;45951;45.824;8.824;2023-10-08T08:30:21;9.77;;;3.05;;
60078;SDS011;45951;45.824;8.824;2023-10-08T08:32:06;7.65;;;2.60;;
60078;SDS011;45951;45.824;8.824;2023-10-08T08:33:48;11.85;;;3.83;;
60078;SDS011;45951;45.824;8.824;2023-10-08T08:35:36;12.18;;;2.90;;
60078;SDS011;45951;45.824;8.824;2023-10-08T08:37:17;12.30;;;3.08;;
60078;SDS011;45951;45.824;8.824;2023-10-08T08:38:57;9.15;;;3.13;;
60078;SDS011;45951;45.824;8.824;2023-10-08T08:40:38;15.95;;;3.58;;
60078;SDS011;45951;45.824;8.824;2023-10-08T08:42:21;10.32;;;3.10;;
60078;SDS011;45951;45.824;8.824;2023-10-08T08:44:03;10.40;;;2.83;;
60078;SDS011;45951;45.824;8.824;2023-10-08T08:45:46;9.35;;;3.08;;
60078;SDS011;45951;45.824;8.824;2023-10-08T08:47:29;7.95;;;2.20;;
60078;SDS011;45951;45.824;8.824;2023-10-08T08:49:10;10.48;;;2.67;;
60078;SDS011;45951;45.824;8.824;2023-10-08T08:50:52;10.68;;;2.67;;
60078;SDS011;45951;45.824;8.824;2023-10-08T08:52:33;9.15;;;2.58;;
60078;SDS011;45951;45.824;8.824;2023-10-08T08:54:13;10.80;;;3.08;;
60078;SDS011;45951;45.824;8.824;2023-10-08T08:55:55;13.85;;;2.90;;
60078;SDS011;45951;45.824;8.824;2023-10-08T08:57:36;10.27;;;2.75;;
60078;SDS011;45951;45.824;8.824;2023-10-08T08:59:19;10.82;;;3.05;;
60078;SDS011;45951;45.824;8.824;2023-10-08T09:01:00;8.32;;;3.20;;
60078;SDS011;45951;45.824;8.824;2023-10-08T09:02:46;12.30;;;3.13;;
60078;SDS011;45951;45.824;8.824;2023-10-08T09:04:28;11.70;;;3.25;;
60078;SDS011;45951;45.824;8.824;2023-10-08T09:06:10;10.02;;;2.72;;
60078;SDS011;45951;45.824;8.824;2023-10-08T09:09:45;8.88;;;3.58;;
60078;SDS011;45951;45.824;8.824;2023-10-08T09:11:25;9.20;;;2.75;;
60078;SDS011;45951;45.824;8.824;2023-10-08T09:13:07;12.02;;;2.95;;
60078;SDS011;45951;45.824;8.824;2023-10-08T09:14:49;9.73;;;2.55;;
60078;SDS011;45951;45.824;8.824;2023-10-08T09:16:29;11.48;;;3.17;;
60078;SDS011;45951;45.824;8.824;2023-10-08T09:19:37;11.90;;;2.97;;
60078;SDS011;45951;45.824;8.824;2023-10-08T09:21:18;11.05;;;3.10;;
60078;SDS011;45951;45.824;8.824;2023-10-08T09:23:08;9.35;;;3.35;;
60078;SDS011;45951;45.824;8.824;2023-10-08T09:24:51;10.98;;;2.83;;
60078;SDS011;45951;45.824;8.824;2023-10-08T09:26:33;12.23;;;3.10;;
60078;SDS011;45951;45.824;8.824;2023-10-08T09:28:17;12.57;;;2.90;;
60078;SDS011;45951;45.824;8.824;2023-10-08T09:29:58;9.32;;;2.70;;
60078;SDS011;45951;45.824;8.824;2023-10-08T09:31:39;9.40;;;3.03;;
60078;SDS011;45951;45.824;8.824;2023-10-08T09:33:20;10.70;;;3.20;;
60078;SDS011;45951;45.824;8.824;2023-10-08T09:35:01;12.68;;;3.17;;
60078;SDS011;45951;45.824;8.824;2023-10-08T09:36:41;13.85;;;3.28;;
60078;SDS011;45951;45.824;8.824;2023-10-08T09:38:22;10.00;;;3.60;;
60078;SDS011;45951;45.824;8.824;2023-10-08T09:40:04;8.77;;;2.72;;
60078;SDS011;45951;45.824;8.824;2023-10-08T09:41:56;11.25;;;3.13;;
60078;SDS011;45951;45.824;8.824;2023-10-08T09:43:36;8.95;;;3.00;;
60078;SDS011;45951;45.824;8.824;2023-10-08T09:45:19;13.52;;;4.25;;
60078;SDS011;45951;45.824;8.824;2023-10-08T09:47:02;14.13;;;3.72;;
60078;SDS011;45951;45.824;8.824;2023-10-08T09:48:48;12.25;;;2.97;;
60078;SDS011;45951;45.824;8.824;2023-10-08T09:50:33;12.82;;;3.17;;
60078;SDS011;45951;45.824;8.824;2023-10-08T09:52:17;9.93;;;3.20;;
60078;SDS011;45951;45.824;8.824;2023-10-08T09:54:23;14.05;;;3.22;;
60078;SDS011;45951;45.824;8.824;2023-10-08T09:56:07;10.82;;;3.38;;
60078;SDS011;45951;45.824;8.824;2023-10-08T09:57:50;14.65;;;4.30;;
60078;SDS011;45951;45.824;8.824;2023-10-08T09:59:35;10.98;;;2.83;;
60078;SDS011;45951;45.824;8.824;2023-10-08T10:01:18;16.00;;;3.80;;
60078;SDS011;45951;45.824;8.824;2023-10-08T10:02:59;11.02;;;2.95;;
60078;SDS011;45951;45.824;8.824;2023-10-08T10:04:43;10.93;;;3.30;;
60078;SDS011;45951;45.824;8.824;2023-10-08T10:06:24;10.55;;;3.10;;
60078;SDS011;45951;45.824;8.824;2023-10-08T10:08:05;11.00;;;3.42;;
60078;SDS011;45951;45.824;8.824;2023-10-08T10:09:50;11.48;;;3.55;;
60078;SDS011;45951;45.824;8.824;2023-10-08T10:11:31;9.77;;;3.78;;
60078;SDS011;45951;45.824;8.824;2023-10-08T10:13:11;9.48;;;2.83;;
60078;SDS011;45951;45.824;8.824;2023-10-08T10:14:52;12.30;;;3.78;;
60078;SDS011;45951;45.824;8.824;2023-10-08T10:16:36;11.25;;;3.38;;
60078;SDS011;45951;45.824;8.824;2023-10-08T10:20:05;9.77;;;2.97;;
60078;SDS011;45951;45.824;8.824;2023-10-08T10:21:51;8.13;;;3.25;;
60078;SDS011;45951;45.824;8.824;2023-10-08T10:25:33;10.77;;;3.22;;
60078;SDS011;45951;45.824;8.824;2023-10-08T10:27:15;13.23;;;3.42;;
60078;SDS011;45951;45.824;8.824;2023-10-08T10:30:55;12.10;;;3.10;;
60078;SDS011;45951;45.824;8.824;2023-10-08T10:32:36;14.15;;;3.30;;
60078;SDS011;45951;45.824;8.824;2023-10-08T10:34:17;13.60;;;4.30;;
60078;SDS011;45951;45.824;8.824;2023-10-08T10:36:00;13.23;;;3.30;;
60078;SDS011;45951;45.824;8.824;2023-10-08T10:37:42;10.15;;;3.85;;